createdAt,value
2018-12-13T06:10:05.200Z,15.00
2018-12-13T06:12:34.757Z,14.37
2018-12-13T06:15:05.674Z,14.40
2018-12-13T06:17:34.904Z,16.03
2018-12-13T06:20:03.967Z,16.33
2018-12-13T06:22:34.656Z,16.03
2018-12-13T06:25:03.546Z,15.27
2018-12-13T06:27:32.704Z,19.67
2018-12-13T06:30:07.510Z,14.60
2018-12-13T06:32:35.320Z,17.50
2018-12-13T06:35:04.420Z,15.10
2018-12-13T06:37:33.139Z,15.00
2018-12-13T06:40:02.692Z,15.77
2018-12-13T06:42:31.984Z,14.43
2018-12-13T06:45:01.327Z,17.17
2018-12-13T06:47:31.031Z,15.67
2018-12-13T06:50:00.811Z,17.43
2018-12-13T06:52:30.097Z,17.27
2018-12-13T06:54:59.621Z,13.87
2018-12-13T06:57:29.396Z,12.90
2018-12-13T07:00:00.319Z,14.30
2018-12-13T07:02:29.355Z,16.73
2018-12-13T07:04:58.923Z,15.70
2018-12-13T07:07:28.784Z,16.43
2018-12-13T07:09:57.628Z,17.27
2018-12-13T07:12:26.652Z,19.23
2018-12-13T07:14:56.129Z,17.93
2018-12-13T07:17:25.237Z,16.83
2018-12-13T07:19:54.045Z,18.57
2018-12-13T07:22:23.228Z,16.60
2018-12-13T07:24:51.948Z,13.33
2018-12-13T07:27:20.824Z,16.90
2018-12-13T07:29:49.680Z,16.07
2018-12-13T07:32:18.540Z,17.63
2018-12-13T07:34:47.961Z,16.33
2018-12-13T07:37:17.048Z,18.53
2018-12-13T07:39:46.545Z,18.80
2018-12-13T07:42:16.029Z,17.13
2018-12-13T07:44:44.840Z,12.63
2018-12-13T07:47:14.496Z,22.00
2018-12-13T07:49:43.199Z,16.47
2018-12-13T07:52:12.001Z,16.20
2018-12-13T07:54:40.711Z,4.80
2018-12-13T07:57:10.368Z,6.50
2018-12-13T07:59:39.214Z,16.97
2018-12-13T08:02:07.968Z,15.93
2018-12-13T08:04:37.744Z,6.40
2018-12-13T08:07:06.471Z,16.90
2018-12-13T08:09:35.330Z,11.57
2018-12-13T08:12:04.183Z,18.43
2018-12-13T08:14:33.101Z,17.07
2018-12-13T08:17:01.624Z,15.50
2018-12-13T08:19:30.927Z,16.40
2018-12-13T08:22:00.083Z,16.70
2018-12-13T08:24:28.938Z,14.87
2018-12-13T08:26:58.144Z,16.67
2018-12-13T08:29:26.972Z,16.23
2018-12-13T08:31:55.981Z,14.57
2018-12-13T08:34:24.444Z,13.50
2018-12-13T08:36:53.703Z,15.57
2018-12-13T08:39:22.404Z,6.90
2018-12-13T08:41:52.496Z,10.13
2018-12-13T08:44:22.583Z,6.83
2018-12-13T08:46:51.332Z,16.67
2018-12-13T08:49:20.322Z,12.53
2018-12-13T08:51:49.976Z,12.77
2018-12-13T08:54:18.722Z,15.40
2018-12-13T08:56:47.761Z,13.93
2018-12-13T08:59:16.519Z,11.93
2018-12-13T09:01:45.800Z,13.73
2018-12-13T09:04:14.480Z,8.03
2018-12-13T09:06:43.343Z,14.93
2018-12-13T09:09:12.209Z,14.10
2018-12-13T09:11:40.927Z,14.67
2018-12-13T09:14:12.291Z,11.07
2018-12-13T09:16:41.325Z,13.30
2018-12-13T09:19:10.336Z,12.20
2018-12-13T09:21:40.282Z,11.67
2018-12-13T09:24:10.088Z,4.90
2018-12-13T09:26:39.171Z,13.97
2018-12-13T09:29:08.696Z,10.60
2018-12-13T09:31:38.689Z,13.90
2018-12-13T09:34:07.476Z,9.93
2018-12-13T09:36:36.598Z,14.80
2018-12-13T09:39:07.223Z,14.77
2018-12-13T09:41:36.263Z,13.23
2018-12-13T09:44:04.987Z,13.60
2018-12-13T09:46:33.837Z,14.87
2018-12-13T09:49:03.105Z,13.83
2018-12-13T09:51:32.695Z,10.47
2018-12-13T09:54:01.835Z,14.57
2018-12-13T09:56:30.656Z,9.70
2018-12-13T09:58:59.859Z,13.27
2018-12-13T10:01:29.057Z,11.20
2018-12-13T10:03:57.917Z,8.07
2018-12-13T10:06:27.030Z,10.30
2018-12-13T10:08:56.028Z,10.60
2018-12-13T10:11:24.908Z,14.73
2018-12-13T10:13:53.685Z,12.70
2018-12-13T10:16:22.412Z,12.60
2018-12-13T10:18:51.437Z,12.73
2018-12-13T10:21:20.151Z,13.73
2018-12-13T10:23:50.783Z,11.57
2018-12-13T10:26:20.405Z,13.57
2018-12-13T10:28:49.111Z,12.23
2018-12-13T10:31:18.256Z,11.83
2018-12-13T10:33:46.996Z,12.23
2018-12-13T10:36:16.105Z,13.03
2018-12-13T10:38:45.233Z,8.80
2018-12-13T10:41:15.924Z,12.00
2018-12-13T10:43:45.144Z,11.47
2018-12-13T10:46:15.322Z,12.30
2018-12-13T10:48:44.040Z,11.47
2018-12-13T10:51:13.240Z,12.50
2018-12-13T10:53:43.452Z,10.07
2018-12-13T10:56:13.038Z,11.77
2018-12-13T10:58:42.176Z,10.93
2018-12-13T11:01:16.952Z,12.10
2018-12-13T11:03:48.200Z,12.53
2018-12-13T11:06:17.259Z,11.60
2018-12-13T11:08:46.515Z,9.33
2018-12-13T11:11:16.998Z,3.97
2018-12-13T11:13:46.093Z,12.30
2018-12-13T11:16:15.251Z,13.37
2018-12-13T11:18:44.792Z,16.67
2018-12-13T11:21:17.430Z,15.30
2018-12-13T11:23:45.023Z,11.30
2018-12-13T11:26:14.139Z,12.87
2018-12-13T11:29:57.107Z,11.97
2018-12-13T11:32:27.328Z,10.70
2018-12-13T11:34:56.036Z,10.10
2018-12-13T11:37:25.140Z,8.17
2018-12-13T11:39:54.035Z,10.40
2018-12-13T11:42:22.876Z,9.47
2018-12-13T11:44:51.964Z,11.77
2018-12-13T11:47:22.352Z,9.40
2018-12-13T11:49:50.104Z,7.53
2018-12-13T11:52:19.892Z,11.37
2018-12-13T11:54:48.747Z,12.07
2018-12-13T11:57:17.882Z,11.30
2018-12-13T11:59:47.697Z,11.10
2018-12-13T12:02:16.504Z,8.03
2018-12-13T12:04:45.360Z,11.77
2018-12-13T12:07:14.242Z,10.93
2018-12-13T12:09:42.741Z,12.10
2018-12-13T12:12:12.040Z,8.77
2018-12-13T12:14:42.788Z,10.57
2018-12-13T12:17:13.332Z,10.27
2018-12-13T12:19:42.447Z,11.70
2018-12-13T12:22:13.012Z,11.17
2018-12-13T12:24:41.759Z,11.50
2018-12-13T12:27:11.084Z,6.40
2018-12-13T12:29:40.184Z,8.63
2018-12-13T12:32:09.577Z,7.03
2018-12-13T12:34:38.779Z,9.57
2018-12-13T12:37:07.951Z,13.00
2018-12-13T12:39:37.055Z,10.33
2018-12-13T12:42:06.308Z,10.80
2018-12-13T12:44:35.524Z,8.47
2018-12-13T12:47:04.375Z,10.40
2018-12-13T12:49:33.205Z,12.33
2018-12-13T12:52:02.697Z,7.57
2018-12-13T12:54:31.464Z,12.20
2018-12-13T12:57:00.266Z,9.87
2018-12-13T12:59:29.714Z,10.63
2018-12-13T13:01:59.995Z,11.33
2018-12-13T13:04:28.732Z,12.70
2018-12-13T13:06:57.975Z,10.93
2018-12-13T13:09:26.781Z,9.90
2018-12-13T13:11:56.119Z,8.77
2018-12-13T13:14:25.712Z,11.53
2018-12-13T13:16:54.709Z,8.27
2018-12-13T13:19:23.551Z,11.20
2018-12-13T13:21:53.104Z,11.23
2018-12-13T13:24:22.251Z,12.80
2018-12-13T13:26:51.925Z,11.43
2018-12-13T13:29:21.159Z,9.73
2018-12-13T13:31:50.687Z,13.27
2018-12-13T13:34:19.775Z,10.80
2018-12-13T13:36:49.035Z,6.93
2018-12-13T13:39:18.211Z,9.73
2018-12-13T13:41:47.139Z,13.40
2018-12-13T13:44:16.359Z,10.37
2018-12-13T13:46:45.560Z,9.27
2018-12-13T13:49:14.737Z,10.03
2018-12-13T13:51:43.616Z,17.47
2018-12-13T13:54:13.000Z,13.30
2018-12-13T13:56:41.528Z,15.43
2018-12-13T13:59:11.057Z,12.57
2018-12-13T14:01:40.048Z,10.03
2018-12-13T14:04:09.068Z,15.93
2018-12-13T14:06:37.851Z,17.10
2018-12-13T14:09:07.732Z,15.90
2018-12-13T14:11:36.778Z,14.27
2018-12-13T14:14:06.159Z,10.43
2018-12-13T14:16:35.771Z,16.20
2018-12-13T14:19:04.568Z,10.90
2018-12-13T14:21:33.331Z,15.67
2018-12-13T14:24:02.881Z,12.13
2018-12-13T14:26:31.925Z,14.87
2018-12-13T14:29:01.553Z,15.33
2018-12-13T14:31:31.125Z,11.00
2018-12-13T14:34:00.529Z,17.43
2018-12-13T14:36:29.747Z,12.50
2018-12-13T14:38:58.515Z,15.90
2018-12-13T14:41:27.702Z,16.20
2018-12-13T14:43:56.812Z,17.23
2018-12-13T14:46:26.100Z,20.07
2018-12-13T14:48:55.118Z,18.93
2018-12-13T14:51:25.028Z,16.10
2018-12-13T14:53:54.295Z,13.53
2018-12-13T14:56:23.260Z,14.37
2018-12-13T14:58:52.396Z,14.27
2018-12-13T15:01:21.856Z,9.67
2018-12-13T15:03:51.250Z,15.00
2018-12-13T15:06:20.317Z,15.13
2018-12-13T15:08:49.943Z,12.37
2018-12-13T15:11:19.143Z,13.53
2018-12-13T15:13:48.383Z,11.47
2018-12-13T15:16:16.953Z,14.43
2018-12-13T15:18:47.096Z,11.97
2018-12-13T15:21:15.815Z,13.63
2018-12-13T15:23:44.855Z,12.53
2018-12-13T15:26:14.152Z,14.70
2018-12-13T15:28:43.930Z,14.63
2018-12-13T15:31:13.592Z,10.93
2018-12-13T15:33:42.761Z,12.83
2018-12-13T15:36:11.964Z,13.47
2018-12-13T15:38:40.684Z,13.63
2018-12-13T15:41:10.313Z,14.63
2018-12-13T15:43:40.077Z,14.20
2018-12-13T15:46:10.280Z,14.87
2018-12-13T15:48:37.981Z,10.03
2018-12-13T15:51:07.860Z,10.60
2018-12-13T15:53:37.048Z,14.07
2018-12-13T15:56:06.563Z,8.23
2018-12-13T15:58:35.844Z,14.87
2018-12-13T16:01:04.975Z,12.17
2018-12-13T16:03:33.991Z,12.83
2018-12-13T16:06:03.406Z,12.17
2018-12-13T16:08:32.936Z,8.77
2018-12-13T16:11:02.479Z,7.73
2018-12-13T16:13:31.203Z,12.47
2018-12-13T16:16:00.133Z,12.97
2018-12-13T16:18:29.667Z,13.63
2018-12-13T16:20:59.175Z,12.30
2018-12-13T16:23:28.299Z,12.03
2018-12-13T16:25:57.709Z,10.93
2018-12-13T16:28:26.844Z,12.37
2018-12-13T16:30:56.069Z,11.60
2018-12-13T16:33:25.540Z,13.13
2018-12-13T16:35:54.688Z,10.43
2018-12-13T16:38:23.691Z,11.87
2018-12-13T16:40:52.800Z,9.27
2018-12-13T16:43:22.257Z,11.87
2018-12-13T16:45:51.417Z,11.33
2018-12-13T16:48:20.427Z,10.87
2018-12-13T16:50:49.863Z,12.13
2018-12-13T16:53:18.973Z,11.47
2018-12-13T16:55:48.095Z,8.33
2018-12-13T16:58:17.109Z,11.53
2018-12-13T17:00:46.620Z,7.57
2018-12-13T17:03:46.778Z,12.63
2018-12-13T17:06:15.780Z,11.13
2018-12-13T17:08:45.208Z,8.83
2018-12-13T17:11:14.488Z,9.43
2018-12-13T17:13:44.020Z,7.13
2018-12-13T17:16:12.699Z,10.80
2018-12-13T17:18:42.123Z,10.07
2018-12-13T17:21:10.943Z,9.73
2018-12-13T17:23:40.411Z,8.87
2018-12-13T17:26:09.785Z,9.00
2018-12-13T17:28:39.229Z,9.60
2018-12-13T17:31:08.381Z,6.80
2018-12-13T17:33:37.924Z,8.53
2018-12-13T17:36:07.420Z,9.10
2018-12-13T17:38:36.415Z,7.27
2018-12-13T17:41:05.515Z,9.07
2018-12-13T17:43:35.082Z,8.73
2018-12-13T17:46:04.487Z,8.67
2018-12-13T17:48:33.687Z,7.67
2018-12-13T17:51:02.754Z,9.37
2018-12-13T17:53:31.442Z,8.47
2018-12-13T17:56:00.135Z,8.70
2018-12-13T17:58:29.142Z,8.63
2018-12-13T18:00:58.624Z,8.20
2018-12-13T18:03:28.047Z,6.23
2018-12-13T18:05:57.539Z,6.27
2018-12-13T18:08:26.849Z,9.73
2018-12-13T18:10:55.534Z,6.40
2018-12-13T18:13:24.933Z,7.70
2018-12-13T18:15:54.436Z,8.67
2018-12-13T18:18:23.823Z,8.93
2018-12-13T18:20:53.061Z,8.67
2018-12-13T18:23:22.512Z,8.43
2018-12-13T18:25:51.619Z,6.97
2018-12-13T18:28:20.752Z,12.87
2018-12-13T18:30:50.164Z,6.37
2018-12-13T18:33:19.222Z,4.90
2018-12-13T18:35:48.625Z,8.00
2018-12-13T18:38:17.618Z,8.83
2018-12-13T18:40:47.067Z,6.60
2018-12-13T18:43:16.445Z,10.70
2018-12-13T18:45:45.158Z,7.50
2018-12-13T18:48:14.658Z,8.30
2018-12-13T18:50:43.348Z,8.20
2018-12-13T18:53:12.154Z,9.23
2018-12-13T18:55:41.243Z,7.60
2018-12-13T18:58:10.229Z,7.43
2018-12-13T19:00:38.978Z,8.70
2018-12-13T19:03:08.080Z,8.73
2018-12-13T19:05:37.231Z,8.07
2018-12-13T19:08:06.641Z,8.47
2018-12-13T19:10:35.427Z,7.47
2018-12-13T19:13:04.527Z,8.80
2018-12-13T19:15:33.316Z,7.40
2018-12-13T19:18:02.427Z,6.27
2018-12-13T19:20:31.692Z,8.77
2018-12-13T19:23:00.795Z,9.07
2018-12-13T19:25:30.171Z,8.03
2018-12-13T19:27:59.624Z,10.37
2018-12-13T19:30:28.094Z,4.33
2018-12-13T19:32:56.901Z,7.40
2018-12-13T19:35:26.417Z,8.00
2018-12-13T19:37:55.100Z,9.30
2018-12-13T19:40:24.257Z,7.50
2018-12-13T19:42:53.147Z,8.93
2018-12-13T19:45:22.695Z,9.00
2018-12-13T19:47:52.128Z,7.80
2018-12-13T19:50:21.502Z,7.63
2018-12-13T19:52:50.973Z,8.40
2018-12-13T19:55:20.367Z,5.37
2018-12-13T19:57:49.410Z,8.70
2018-12-13T20:00:18.096Z,8.33
2018-12-13T20:02:47.288Z,8.27
2018-12-13T20:05:17.288Z,9.17
2018-12-13T20:07:46.048Z,9.33
2018-12-13T20:10:14.772Z,7.57
2018-12-13T20:12:43.454Z,8.67
2018-12-13T20:15:12.866Z,8.07
2018-12-13T20:17:42.242Z,9.47
2018-12-13T20:20:11.224Z,8.57
2018-12-13T20:22:40.863Z,8.23
2018-12-13T20:25:09.920Z,4.43
2018-12-13T20:27:38.640Z,6.97
2018-12-13T20:30:09.017Z,7.73
2018-12-13T20:32:38.035Z,9.30
2018-12-13T20:35:07.416Z,7.77
2018-12-13T20:37:36.866Z,7.63
2018-12-13T20:40:06.039Z,7.93
2018-12-13T20:42:35.567Z,5.80
2018-12-13T20:45:05.704Z,7.20
2018-12-13T20:47:34.752Z,6.23
2018-12-13T20:50:03.947Z,5.47
2018-12-13T20:52:32.624Z,7.53
2018-12-13T20:55:01.595Z,7.60
2018-12-13T20:57:31.095Z,7.93
2018-12-13T21:00:00.496Z,5.30
2018-12-13T21:02:29.872Z,7.10
2018-12-13T21:04:58.560Z,6.83
2018-12-13T21:07:33.835Z,8.07
2018-12-13T21:10:04.070Z,7.20
2018-12-13T21:12:33.260Z,7.40
2018-12-13T21:15:02.334Z,7.57
2018-12-13T21:17:31.520Z,7.67
2018-12-13T21:20:00.698Z,7.53
2018-12-13T21:22:30.111Z,11.03
2018-12-13T21:24:59.294Z,10.87
2018-12-13T21:27:28.779Z,10.03
2018-12-13T21:29:58.201Z,6.37
2018-12-13T21:32:26.876Z,9.60
2018-12-13T21:34:56.267Z,6.73
2018-12-13T21:37:25.672Z,8.70
2018-12-13T21:39:54.348Z,9.33
2018-12-13T21:42:23.767Z,8.30
2018-12-13T21:44:52.948Z,8.73
2018-12-13T21:47:22.512Z,5.70
2018-12-13T21:49:52.072Z,9.03
2018-12-13T21:52:20.778Z,8.87
2018-12-13T21:54:49.759Z,8.77
